Главная страница
METAR-TAF:

METAR-TAF

Аэропорты :

Elmira / Corning, Нью-Йорк, США

широта: 42-09-23N, долгота: 076-54-10W, высота над уровнем моря: 291 м

Текущие метеонаблюдения

Эта сводка был подготовлена 16 минут назад, в 23:53 UTC
Ветер 6 Узел от северо-западный
Температура 23°C
Влажность 38%
Давление 1018 hPa
Видимость: 16.1 км
ясное небо

METAR: KELM 232353Z 31006KT 10SM CLR 23/08 A3005 RMK AO2 SLP173 T02330078 10272 20228 53014

Время: 20:09 (00:09 UTC)

Прогноз

Эта сводка был подготовлена 33 минут назад, в 23:36 UTC
Прогноз действительный с 24-го 00 UTC до 24-го 24 UTC
Ветер 3 Узел переменных направлений
Видимость: 10 км
ясное небо

TAF: KELM 232336Z 2400/2424 VRB03KT P6SM SKC

Метеонаблюдения и прогнозы для более 4000 аэропортов (сводки METAR и TAF).

Имеющиеся станции представлены на карте желтыми и красными точками.

Чтобы увидеть название станции, наведите на нее мышь.

Затем щелкните, чтобы увидеть метеонаблюдения и метеопрогнозы.

Управление картой: чтобы увеличить масштаб, щелкните зеленые кнопки с черным крестиком; чтобы уменьшить масштаб, щелкните зеленую кнопку с тире; для просмотра соседних карт щелкайте зеленые стрелки.


METAR-TAF: